Time;durP1;ratioP1;P1;durP2;ratioP2;P2;SDS_P1;SDS_P2;PMS_P1;PMS_P2;Temp;Humidity;BMP_temperature;BMP_pressure;BME280_temperature;BME280_humidity;BME280_pressure;Samples;Min_cycle;Max_cycle;Signal;HPM_P1;HPM_P2
2023/12/18 17:27:03;;;;;;;26.30;18.40;;;;;;;5.82;100.00;100006.72;106057;1304;544880;-52
2023/12/18 17:29:29;;;;;;;31.60;17.80;;;;;;;5.78;100.00;100004.55;106342;1295;22569;-46
2023/12/18 17:31:54;;;;;;;32.10;20.10;;;;;;;5.79;100.00;100007.83;106338;1297;22591;-41
2023/12/18 17:34:19;;;;;;;27.90;19.50;;;;;;;5.80;100.00;100003.81;107057;1306;22575;-45
2023/12/18 17:36:45;;;;;;;31.50;17.30;;;;;;;5.79;100.00;100001.20;107070;1288;22580;-45
2023/12/18 17:39:11;;;;;;;30.20;18.30;;;;;;;5.75;100.00;100003.58;107000;1306;22576;-47
2023/12/18 17:41:36;;;;;;;29.20;18.10;;;;;;;5.73;100.00;100000.66;107216;1304;22588;-45
2023/12/18 17:44:01;;;;;;;32.00;18.50;;;;;;;5.73;100.00;99994.92;107257;1287;22574;-45
2023/12/18 17:46:27;;;;;;;31.90;19.00;;;;;;;5.69;100.00;99993.27;107327;1304;22559;-46
2023/12/18 17:48:53;;;;;;;25.20;17.90;;;;;;;5.65;100.00;99991.11;107346;1304;22572;-45
2023/12/18 17:51:19;;;;;;;25.30;15.90;;;;;;;5.66;100.00;99991.45;107227;1285;22519;-42
2023/12/18 17:53:45;;;;;;;24.60;17.30;;;;;;;5.64;100.00;99995.13;107394;1304;22572;-49
2023/12/18 17:56:10;;;;;;;34.10;18.90;;;;;;;5.65;100.00;99997.03;107242;1286;22558;-44
2023/12/18 17:58:35;;;;;;;28.20;17.00;;;;;;;5.65;100.00;99997.37;107361;1304;22563;-49
2023/12/18 18:01:00;;;;;;;36.00;18.10;;;;;;;5.66;100.00;99997.72;107230;1304;22684;-43
2023/12/18 18:03:26;;;;;;;27.00;15.90;;;;;;;5.65;100.00;99993.90;107319;1295;22554;-43
2023/12/18 18:05:51;;;;;;;26.60;16.90;;;;;;;5.64;100.00;99988.02;107286;1288;22633;-55
2023/12/18 18:08:16;;;;;;;27.10;16.10;;;;;;;5.64;100.00;99982.45;107109;1289;22560;-46
2023/12/18 18:10:42;;;;;;;27.40;17.00;;;;;;;5.65;100.00;99973.02;107124;1304;22561;-46
2023/12/18 18:13:07;;;;;;;24.60;15.50;;;;;;;5.66;100.00;99974.75;107136;1288;22565;-45
2023/12/18 18:15:32;;;;;;;22.80;15.00;;;;;;;5.63;100.00;99973.08;107248;1304;22577;-46
2023/12/18 18:17:58;;;;;;;20.90;15.30;;;;;;;5.63;100.00;99970.11;107242;1304;25455;-46
2023/12/18 18:20:24;;;;;;;24.80;15.10;;;;;;;5.60;100.00;99961.67;107243;1295;23297;-43
2023/12/18 18:22:49;;;;;;;24.10;15.30;;;;;;;5.62;100.00;99959.19;107205;1304;22787;-45
2023/12/18 18:25:15;;;;;;;18.20;13.10;;;;;;;5.62;100.00;99961.79;107199;1304;22633;-49
2023/12/18 18:27:40;;;;;;;25.00;15.30;;;;;;;5.62;100.00;99975.19;107193;1304;22563;-47
2023/12/18 18:30:06;;;;;;;19.10;14.10;;;;;;;5.64;100.00;99978.97;107198;1287;22593;-47
2023/12/18 18:32:32;;;;;;;26.50;15.60;;;;;;;5.63;100.00;99979.17;107244;1304;24536;-44
2023/12/18 18:34:57;;;;;;;27.60;15.50;;;;;;;5.64;100.00;99975.84;107189;1304;22577;-47
2023/12/18 18:37:22;;;;;;;25.40;15.40;;;;;;;5.65;100.00;99976.67;107183;1304;25518;-45
2023/12/18 18:39:48;;;;;;;24.30;16.20;;;;;;;5.63;100.00;99973.08;107142;1304;22714;-42
2023/12/18 18:42:13;;;;;;;23.50;15.50;;;;;;;5.62;100.00;99976.08;107174;1298;23042;-46
2023/12/18 18:44:39;;;;;;;26.60;16.60;;;;;;;5.63;100.00;99975.85;107152;1287;22573;-45
2023/12/18 18:47:04;;;;;;;26.70;15.50;;;;;;;5.66;100.00;99977.00;107192;1304;22594;-50
2023/12/18 18:49:29;;;;;;;24.40;14.10;;;;;;;5.67;100.00;99970.88;107209;1288;22610;-47
2023/12/18 18:51:55;;;;;;;29.70;15.20;;;;;;;5.69;100.00;99965.10;107157;1304;24240;-49
2023/12/18 18:54:21;;;;;;;23.70;15.20;;;;;;;5.71;100.00;99967.31;107155;1304;22513;-45
2023/12/18 18:56:46;;;;;;;25.10;14.70;;;;;;;5.73;100.00;99962.39;107144;1304;22565;-47
2023/12/18 18:59:12;;;;;;;20.70;13.10;;;;;;;5.73;100.00;99960.29;107144;1304;22559;-44
2023/12/18 19:01:37;;;;;;;26.00;14.20;;;;;;;5.75;100.00;99956.25;107191;1304;22596;-45
